Vicosa do Ceara, Brazil
Current Conditions -  °F | °C
As of 12:00 AM on Friday 19 Dec 2014 (Local Time) from SBPB Reporting Station
Scattered Clouds Scattered Clouds  
Wind Chill: 82°   Ceiling: Unl
Heat Index: 89°   Visibility: 6mi
Dew Point: 75°   Wind: 10mph
Humidity: 79%   Direction: 110°ESE
Pressure: 29.83"   Gusts: NA
Location:  3.56°S, 41.09°W
Report Text: SBPB 190300Z 11009KT 9999 SCT017 28/24 Q1010
Loading
Personal Weather Stations






























Interactive Weather Map New forecast layout! Learn more

10-Day Weather Forecast

Advertisements
Track Severe Weather on mobile